PWSweather.com
Personal Weather Stations
Station Observations
IMAZOWIE6
WarszawaPL

WarszawaPL

Lat: 52.27957, Lon: 21.05489

Elevation: 100

Station Type: WS1080

http://stacjapogody.waw.pl/

High Low Average
Temperature 31.6°F-0.2°C 25.5°F-3.6°C 28.9°F-1.7°C
Dew Point -169.6°F-112.0°C -170.2°F-112.3°C -169.9°F-112.2°C
Winds 2.0 mph 3.2 kmh Calm Calm Calm NCalm N
Wind Gusts 6.8 mph10.9 kmh -- 2.0 mph3.2 kmh
Humidity - - -
Pressure 30.26 in1024.7 mb 30.20 in1022.7 mb -
Precipitation 0.00 in0.0 mm - -
Hour Temp Dew Point Humidity Winds Wind Gusts Pressure Precip Precip Rate Daily Precip Total
12:05 AM 30.0°F-1.1°C -169.8°F-112.1°C - Calm Calm 4.0 mph6.4 kmh 30.21 in1023.0 mb 0.00 in0.0 mm 0.00 in0.0 mm 0.00 in0.0 mm
12:20 AM 30.0°F-1.1°C -169.8°F-112.1°C - Calm Calm 2.8 mph4.5 kmh 30.21 in1023.0 mb 0.00 in0.0 mm 0.00 in0.0 mm 0.00 in0.0 mm
12:30 AM 30.0°F-1.1°C -169.8°F-112.1°C - Calm Calm 2.8 mph4.5 kmh 30.21 in1023.0 mb 0.00 in0.0 mm 0.00 in0.0 mm 0.00 in0.0 mm
12:47 AM 30.0°F-1.1°C -169.8°F-112.1°C - Calm Calm 2.8 mph4.5 kmh 30.21 in1023.0 mb 0.00 in0.0 mm 0.00 in0.0 mm 0.00 in0.0 mm
01:05 AM 29.7°F-1.3°C -169.8°F-112.1°C - Calm Calm 0.6 mph1.0 kmh 30.21 in1023.0 mb 0.00 in0.0 mm 0.00 in0.0 mm 0.00 in0.0 mm
01:15 AM 29.7°F-1.3°C -169.8°F-112.1°C - Calm Calm 0.6 mph1.0 kmh 30.21 in1023.0 mb 0.00 in0.0 mm 0.00 in0.0 mm 0.00 in0.0 mm
01:35 AM 29.8°F-1.2°C -169.8°F-112.1°C - Calm Calm 2.0 mph3.2 kmh 30.21 in1023.0 mb 0.00 in0.0 mm 0.00 in0.0 mm 0.00 in0.0 mm
01:50 AM 30.0°F-1.1°C -169.8°F-112.1°C - Calm Calm 0.6 mph1.0 kmh 30.21 in1023.0 mb 0.00 in0.0 mm 0.00 in0.0 mm 0.00 in0.0 mm
02:05 AM 30.0°F-1.1°C -169.8°F-112.1°C - Calm Calm 2.0 mph3.2 kmh 30.21 in1023.0 mb 0.00 in0.0 mm 0.00 in0.0 mm 0.00 in0.0 mm
02:20 AM 30.2°F-1.0°C -169.8°F-112.1°C - Calm Calm 0.6 mph1.0 kmh 30.21 in1023.0 mb 0.00 in0.0 mm 0.00 in0.0 mm 0.00 in0.0 mm
02:35 AM 30.2°F-1.0°C -169.8°F-112.1°C - Calm Calm 2.0 mph3.2 kmh 30.21 in1023.0 mb 0.00 in0.0 mm 0.00 in0.0 mm 0.00 in0.0 mm
02:50 AM 30.6°F-0.8°C -169.7°F-112.1°C - Calm Calm 0.6 mph1.0 kmh 30.21 in1023.0 mb 0.00 in0.0 mm 0.00 in0.0 mm 0.00 in0.0 mm
03:05 AM 30.4°F-0.9°C -169.8°F-112.1°C - Calm Calm -- 30.21 in1023.0 mb 0.00 in0.0 mm 0.00 in0.0 mm 0.00 in0.0 mm
03:20 AM 30.4°F-0.9°C -169.8°F-112.1°C - Calm Calm 0.6 mph1.0 kmh 30.21 in1023.0 mb 0.00 in0.0 mm 0.00 in0.0 mm 0.00 in0.0 mm
03:35 AM 30.2°F-1.0°C -169.8°F-112.1°C - Calm Calm 0.6 mph1.0 kmh 30.21 in1023.0 mb 0.00 in0.0 mm 0.00 in0.0 mm 0.00 in0.0 mm
03:50 AM 30.0°F-1.1°C -169.8°F-112.1°C - Calm Calm -- 30.21 in1023.0 mb 0.00 in0.0 mm 0.00 in0.0 mm 0.00 in0.0 mm
04:02 AM 30.0°F-1.1°C -169.8°F-112.1°C - Calm Calm -- 30.21 in1023.0 mb 0.00 in0.0 mm 0.00 in0.0 mm 0.00 in0.0 mm
04:20 AM 30.0°F-1.1°C -169.8°F-112.1°C - Calm Calm 0.6 mph1.0 kmh 30.21 in1023.0 mb 0.00 in0.0 mm 0.00 in0.0 mm 0.00 in0.0 mm
04:35 AM 29.8°F-1.2°C -169.8°F-112.1°C - Calm Calm 0.6 mph1.0 kmh 30.20 in1022.7 mb 0.00 in0.0 mm 0.00 in0.0 mm 0.00 in0.0 mm
04:50 AM 29.8°F-1.2°C -169.8°F-112.1°C - Calm Calm -- 30.21 in1023.0 mb 0.00 in0.0 mm 0.00 in0.0 mm 0.00 in0.0 mm
05:05 AM 29.8°F-1.2°C -169.8°F-112.1°C - Calm Calm 0.6 mph1.0 kmh 30.21 in1023.0 mb 0.00 in0.0 mm 0.00 in0.0 mm 0.00 in0.0 mm
05:15 AM 29.8°F-1.2°C -169.8°F-112.1°C - Calm Calm 0.6 mph1.0 kmh 30.21 in1023.0 mb 0.00 in0.0 mm 0.00 in0.0 mm 0.00 in0.0 mm
05:35 AM 29.3°F-1.5°C -169.9°F-112.2°C - Calm Calm -- 30.21 in1023.0 mb 0.00 in0.0 mm 0.00 in0.0 mm 0.00 in0.0 mm
05:45 AM 29.3°F-1.5°C -169.9°F-112.2°C - Calm Calm -- 30.21 in1023.0 mb 0.00 in0.0 mm 0.00 in0.0 mm 0.00 in0.0 mm
06:05 AM 29.1°F-1.6°C -169.9°F-112.2°C - Calm Calm 0.6 mph1.0 kmh 30.21 in1023.0 mb 0.00 in0.0 mm 0.00 in0.0 mm 0.00 in0.0 mm
06:16 AM 29.1°F-1.6°C -169.9°F-112.2°C - Calm Calm 0.6 mph1.0 kmh 30.21 in1023.0 mb 0.00 in0.0 mm 0.00 in0.0 mm 0.00 in0.0 mm
06:35 AM 29.1°F-1.6°C -169.9°F-112.2°C - Calm Calm 1.4 mph2.3 kmh 30.21 in1023.0 mb 0.00 in0.0 mm 0.00 in0.0 mm 0.00 in0.0 mm
06:50 AM 28.8°F-1.8°C -169.9°F-112.2°C - Calm Calm 0.6 mph1.0 kmh 30.22 in1023.4 mb 0.00 in0.0 mm 0.00 in0.0 mm 0.00 in0.0 mm
07:05 AM 29.1°F-1.6°C -169.9°F-112.2°C - Calm Calm -- 30.21 in1023.0 mb 0.00 in0.0 mm 0.00 in0.0 mm 0.00 in0.0 mm
07:20 AM 29.3°F-1.5°C -169.9°F-112.2°C - Calm Calm -- 30.22 in1023.4 mb 0.00 in0.0 mm 0.00 in0.0 mm 0.00 in0.0 mm
07:35 AM 29.5°F-1.4°C -169.9°F-112.2°C - Calm Calm 0.6 mph1.0 kmh 30.22 in1023.4 mb 0.00 in0.0 mm 0.00 in0.0 mm 0.00 in0.0 mm
07:50 AM 29.5°F-1.4°C -169.9°F-112.2°C - Calm Calm 0.6 mph1.0 kmh 30.22 in1023.4 mb 0.00 in0.0 mm 0.00 in0.0 mm 0.00 in0.0 mm
08:05 AM 29.8°F-1.2°C -169.8°F-112.1°C - Calm Calm 0.6 mph1.0 kmh 30.22 in1023.4 mb 0.00 in0.0 mm 0.00 in0.0 mm 0.00 in0.0 mm
08:20 AM 29.8°F-1.2°C -169.8°F-112.1°C - Calm Calm 0.6 mph1.0 kmh 30.22 in1023.4 mb 0.00 in0.0 mm 0.00 in0.0 mm 0.00 in0.0 mm
08:32 AM 29.8°F-1.2°C -169.8°F-112.1°C - Calm Calm 0.6 mph1.0 kmh 30.22 in1023.4 mb 0.00 in0.0 mm 0.00 in0.0 mm 0.00 in0.0 mm
08:49 AM 30.2°F-1.0°C -169.8°F-112.1°C - Calm Calm 1.4 mph2.3 kmh 30.22 in1023.4 mb 0.00 in0.0 mm 0.00 in0.0 mm 0.00 in0.0 mm
09:00 AM 30.2°F-1.0°C -169.8°F-112.1°C - Calm Calm 1.4 mph2.3 kmh 30.22 in1023.4 mb 0.00 in0.0 mm 0.00 in0.0 mm 0.00 in0.0 mm
09:20 AM 31.6°F-0.2°C -169.6°F-112.0°C - Calm Calm 2.0 mph3.2 kmh 30.24 in1024.0 mb 0.00 in0.0 mm 0.00 in0.0 mm 0.00 in0.0 mm
09:35 AM 31.6°F-0.2°C -169.6°F-112.0°C - 0.6 mph N1.0 kmh N 4.8 mph7.7 kmh 30.25 in1024.4 mb 0.00 in0.0 mm 0.00 in0.0 mm 0.00 in0.0 mm
09:50 AM 31.1°F-0.5°C -169.7°F-112.1°C - 1.4 mph N2.3 kmh N 4.8 mph7.7 kmh 30.26 in1024.7 mb 0.00 in0.0 mm 0.00 in0.0 mm 0.00 in0.0 mm
10:05 AM 30.6°F-0.8°C -169.7°F-112.1°C - 1.4 mph N2.3 kmh N 6.2 mph10.0 kmh 30.25 in1024.4 mb 0.00 in0.0 mm 0.00 in0.0 mm 0.00 in0.0 mm
10:20 AM 30.6°F-0.8°C -169.7°F-112.1°C - 0.6 mph N1.0 kmh N 3.4 mph5.5 kmh 30.25 in1024.4 mb 0.00 in0.0 mm 0.00 in0.0 mm 0.00 in0.0 mm
10:35 AM 30.9°F-0.6°C -169.7°F-112.1°C - Calm Calm 2.0 mph3.2 kmh 30.25 in1024.4 mb 0.00 in0.0 mm 0.00 in0.0 mm 0.00 in0.0 mm
10:45 AM 30.9°F-0.6°C -169.7°F-112.1°C - Calm Calm 2.0 mph3.2 kmh 30.25 in1024.4 mb 0.00 in0.0 mm 0.00 in0.0 mm 0.00 in0.0 mm
11:00 AM 30.9°F-0.6°C -169.7°F-112.1°C - Calm Calm 2.0 mph3.2 kmh 30.25 in1024.4 mb 0.00 in0.0 mm 0.00 in0.0 mm 0.00 in0.0 mm
11:20 AM 31.3°F-0.4°C -169.7°F-112.1°C - Calm Calm 1.4 mph2.3 kmh 30.24 in1024.0 mb 0.00 in0.0 mm 0.00 in0.0 mm 0.00 in0.0 mm
11:35 AM 31.1°F-0.5°C -169.7°F-112.1°C - Calm Calm 3.4 mph5.5 kmh 30.24 in1024.0 mb 0.00 in0.0 mm 0.00 in0.0 mm 0.00 in0.0 mm
11:50 AM 31.1°F-0.5°C -169.7°F-112.1°C - 0.6 mph N1.0 kmh N 2.8 mph4.5 kmh 30.24 in1024.0 mb 0.00 in0.0 mm 0.00 in0.0 mm 0.00 in0.0 mm
12:05 PM 31.1°F-0.5°C -169.7°F-112.1°C - 0.6 mph N1.0 kmh N 2.8 mph4.5 kmh 30.24 in1024.0 mb 0.00 in0.0 mm 0.00 in0.0 mm 0.00 in0.0 mm
12:16 PM 31.1°F-0.5°C -169.7°F-112.1°C - 0.6 mph N1.0 kmh N 2.8 mph4.5 kmh 30.24 in1024.0 mb 0.00 in0.0 mm 0.00 in0.0 mm 0.00 in0.0 mm
12:35 PM 31.3°F-0.4°C -169.7°F-112.1°C - Calm Calm 3.4 mph5.5 kmh 30.22 in1023.4 mb 0.00 in0.0 mm 0.00 in0.0 mm 0.00 in0.0 mm
12:50 PM 30.7°F-0.7°C -169.7°F-112.1°C - Calm Calm -- 30.22 in1023.4 mb 0.00 in0.0 mm 0.00 in0.0 mm 0.00 in0.0 mm
01:05 PM 30.0°F-1.1°C -169.8°F-112.1°C - 0.6 mph N1.0 kmh N 4.8 mph7.7 kmh 30.23 in1023.7 mb 0.00 in0.0 mm 0.00 in0.0 mm 0.00 in0.0 mm
01:20 PM 29.5°F-1.4°C -169.9°F-112.2°C - Calm Calm 1.4 mph2.3 kmh 30.24 in1024.0 mb 0.00 in0.0 mm 0.00 in0.0 mm 0.00 in0.0 mm
01:31 PM 29.5°F-1.4°C -169.9°F-112.2°C - Calm Calm 1.4 mph2.3 kmh 30.24 in1024.0 mb 0.00 in0.0 mm 0.00 in0.0 mm 0.00 in0.0 mm
01:45 PM 29.5°F-1.4°C -169.9°F-112.2°C - Calm Calm 1.4 mph2.3 kmh 30.24 in1024.0 mb 0.00 in0.0 mm 0.00 in0.0 mm 0.00 in0.0 mm
02:05 PM 29.7°F-1.3°C -169.8°F-112.1°C - 0.6 mph N1.0 kmh N 4.0 mph6.4 kmh 30.23 in1023.7 mb 0.00 in0.0 mm 0.00 in0.0 mm 0.00 in0.0 mm
02:15 PM 29.7°F-1.3°C -169.8°F-112.1°C - 0.6 mph N1.0 kmh N 4.0 mph6.4 kmh 30.23 in1023.7 mb 0.00 in0.0 mm 0.00 in0.0 mm 0.00 in0.0 mm
02:35 PM 29.1°F-1.6°C -169.9°F-112.2°C - Calm Calm 0.6 mph1.0 kmh 30.23 in1023.7 mb 0.00 in0.0 mm 0.00 in0.0 mm 0.00 in0.0 mm
02:50 PM 29.1°F-1.6°C -169.9°F-112.2°C - 0.6 mph N1.0 kmh N 3.4 mph5.5 kmh 30.22 in1023.4 mb 0.00 in0.0 mm 0.00 in0.0 mm 0.00 in0.0 mm
03:05 PM 28.8°F-1.8°C -169.9°F-112.2°C - 2.0 mph N3.2 kmh N 4.0 mph6.4 kmh 30.22 in1023.4 mb 0.00 in0.0 mm 0.00 in0.0 mm 0.00 in0.0 mm
03:20 PM 28.6°F-1.9°C -169.9°F-112.2°C - 0.6 mph N1.0 kmh N 4.0 mph6.4 kmh 30.22 in1023.4 mb 0.00 in0.0 mm 0.00 in0.0 mm 0.00 in0.0 mm
03:35 PM 28.4°F-2.0°C -170.0°F-112.2°C - Calm Calm 1.4 mph2.3 kmh 30.23 in1023.7 mb 0.00 in0.0 mm 0.00 in0.0 mm 0.00 in0.0 mm
03:50 PM 28.4°F-2.0°C -170.0°F-112.2°C - Calm Calm 0.6 mph1.0 kmh 30.24 in1024.0 mb 0.00 in0.0 mm 0.00 in0.0 mm 0.00 in0.0 mm
04:05 PM 28.2°F-2.1°C -170.0°F-112.2°C - Calm Calm 1.4 mph2.3 kmh 30.24 in1024.0 mb 0.00 in0.0 mm 0.00 in0.0 mm 0.00 in0.0 mm
04:20 PM 27.7°F-2.4°C -170.0°F-112.2°C - Calm Calm 2.0 mph3.2 kmh 30.24 in1024.0 mb 0.00 in0.0 mm 0.00 in0.0 mm 0.00 in0.0 mm
04:35 PM 27.7°F-2.4°C -170.0°F-112.2°C - Calm Calm 1.4 mph2.3 kmh 30.23 in1023.7 mb 0.00 in0.0 mm 0.00 in0.0 mm 0.00 in0.0 mm
04:50 PM 27.5°F-2.5°C -170.1°F-112.3°C - Calm Calm 2.0 mph3.2 kmh 30.23 in1023.7 mb 0.00 in0.0 mm 0.00 in0.0 mm 0.00 in0.0 mm
05:05 PM 27.3°F-2.6°C -170.1°F-112.3°C - 1.4 mph N2.3 kmh N 4.8 mph7.7 kmh 30.24 in1024.0 mb 0.00 in0.0 mm 0.00 in0.0 mm 0.00 in0.0 mm
05:20 PM 27.1°F-2.7°C -170.1°F-112.3°C - 2.0 mph N3.2 kmh N 4.8 mph7.7 kmh 30.24 in1024.0 mb 0.00 in0.0 mm 0.00 in0.0 mm 0.00 in0.0 mm
05:35 PM 27.1°F-2.7°C -170.1°F-112.3°C - 2.0 mph N3.2 kmh N 5.4 mph8.7 kmh 30.24 in1024.0 mb 0.00 in0.0 mm 0.00 in0.0 mm 0.00 in0.0 mm
05:50 PM 27.0°F-2.8°C -170.1°F-112.3°C - 0.6 mph N1.0 kmh N 3.4 mph5.5 kmh 30.24 in1024.0 mb 0.00 in0.0 mm 0.00 in0.0 mm 0.00 in0.0 mm
06:05 PM 27.1°F-2.7°C -170.1°F-112.3°C - Calm Calm 2.0 mph3.2 kmh 30.24 in1024.0 mb 0.00 in0.0 mm 0.00 in0.0 mm 0.00 in0.0 mm
06:20 PM 27.1°F-2.7°C -170.1°F-112.3°C - Calm Calm 2.0 mph3.2 kmh 30.24 in1024.0 mb 0.00 in0.0 mm 0.00 in0.0 mm 0.00 in0.0 mm
06:35 PM 27.1°F-2.7°C -170.1°F-112.3°C - Calm Calm 2.0 mph3.2 kmh 30.24 in1024.0 mb 0.00 in0.0 mm 0.00 in0.0 mm 0.00 in0.0 mm
06:50 PM 27.3°F-2.6°C -170.1°F-112.3°C - Calm Calm 2.0 mph3.2 kmh 30.24 in1024.0 mb 0.00 in0.0 mm 0.00 in0.0 mm 0.00 in0.0 mm
07:05 PM 27.1°F-2.7°C -170.1°F-112.3°C - 0.6 mph N1.0 kmh N 4.8 mph7.7 kmh 30.24 in1024.0 mb 0.00 in0.0 mm 0.00 in0.0 mm 0.00 in0.0 mm
07:20 PM 27.1°F-2.7°C -170.1°F-112.3°C - 0.6 mph N1.0 kmh N 2.8 mph4.5 kmh 30.24 in1024.0 mb 0.00 in0.0 mm 0.00 in0.0 mm 0.00 in0.0 mm
07:35 PM 27.0°F-2.8°C -170.1°F-112.3°C - Calm Calm 0.6 mph1.0 kmh 30.23 in1023.7 mb 0.00 in0.0 mm 0.00 in0.0 mm 0.00 in0.0 mm
07:50 PM 27.0°F-2.8°C -170.1°F-112.3°C - Calm Calm 1.4 mph2.3 kmh 30.23 in1023.7 mb 0.00 in0.0 mm 0.00 in0.0 mm 0.00 in0.0 mm
08:05 PM 26.8°F-2.9°C -170.1°F-112.3°C - Calm Calm 2.8 mph4.5 kmh 30.23 in1023.7 mb 0.00 in0.0 mm 0.00 in0.0 mm 0.00 in0.0 mm
08:20 PM 26.8°F-2.9°C -170.1°F-112.3°C - Calm Calm 1.4 mph2.3 kmh 30.23 in1023.7 mb 0.00 in0.0 mm 0.00 in0.0 mm 0.00 in0.0 mm
08:35 PM 26.6°F-3.0°C -170.1°F-112.3°C - Calm Calm 2.8 mph4.5 kmh 30.23 in1023.7 mb 0.00 in0.0 mm 0.00 in0.0 mm 0.00 in0.0 mm
08:50 PM 26.6°F-3.0°C -170.1°F-112.3°C - 2.0 mph N3.2 kmh N 5.4 mph8.7 kmh 30.24 in1024.0 mb 0.00 in0.0 mm 0.00 in0.0 mm 0.00 in0.0 mm
09:00 PM 26.6°F-3.0°C -170.1°F-112.3°C - 2.0 mph N3.2 kmh N 5.4 mph8.7 kmh 30.24 in1024.0 mb 0.00 in0.0 mm 0.00 in0.0 mm 0.00 in0.0 mm
09:16 PM 26.6°F-3.0°C -170.1°F-112.3°C - 2.0 mph N3.2 kmh N 5.4 mph8.7 kmh 30.24 in1024.0 mb 0.00 in0.0 mm 0.00 in0.0 mm 0.00 in0.0 mm
09:35 PM 26.4°F-3.1°C -170.2°F-112.3°C - 0.6 mph N1.0 kmh N 3.4 mph5.5 kmh 30.24 in1024.0 mb 0.00 in0.0 mm 0.00 in0.0 mm 0.00 in0.0 mm
09:46 PM 26.4°F-3.1°C -170.2°F-112.3°C - 0.6 mph N1.0 kmh N 3.4 mph5.5 kmh 30.24 in1024.0 mb 0.00 in0.0 mm 0.00 in0.0 mm 0.00 in0.0 mm
10:01 PM 26.4°F-3.1°C -170.2°F-112.3°C - 0.6 mph N1.0 kmh N 3.4 mph5.5 kmh 30.24 in1024.0 mb 0.00 in0.0 mm 0.00 in0.0 mm 0.00 in0.0 mm
10:20 PM 25.7°F-3.5°C -170.2°F-112.3°C - 2.0 mph N3.2 kmh N 5.4 mph8.7 kmh 30.24 in1024.0 mb 0.00 in0.0 mm 0.00 in0.0 mm 0.00 in0.0 mm
10:35 PM 25.7°F-3.5°C -170.2°F-112.3°C - Calm Calm 2.8 mph4.5 kmh 30.24 in1024.0 mb 0.00 in0.0 mm 0.00 in0.0 mm 0.00 in0.0 mm
10:50 PM 25.7°F-3.5°C -170.2°F-112.3°C - 1.4 mph N2.3 kmh N 6.8 mph10.9 kmh 30.24 in1024.0 mb 0.00 in0.0 mm 0.00 in0.0 mm 0.00 in0.0 mm
11:05 PM 25.7°F-3.5°C -170.2°F-112.3°C - 1.4 mph N2.3 kmh N 6.8 mph10.9 kmh 30.24 in1024.0 mb 0.00 in0.0 mm 0.00 in0.0 mm 0.00 in0.0 mm
11:20 PM 25.5°F-3.6°C -170.2°F-112.3°C - Calm Calm -- 30.23 in1023.7 mb 0.00 in0.0 mm 0.00 in0.0 mm 0.00 in0.0 mm
11:35 PM 25.5°F-3.6°C -170.2°F-112.3°C - Calm Calm 1.4 mph2.3 kmh 30.23 in1023.7 mb 0.00 in0.0 mm 0.00 in0.0 mm 0.00 in0.0 mm
11:50 PM 25.5°F-3.6°C -170.2°F-112.3°C - Calm Calm 1.4 mph2.3 kmh 30.23 in1023.7 mb 0.00 in0.0 mm 0.00 in0.0 mm 0.00 in0.0 mm